createdAt,value
2019-03-31T00:01:51.460Z,98.90
2019-03-31T00:04:20.310Z,99.00
2019-03-31T00:06:49.185Z,98.90
2019-03-31T00:09:18.028Z,99.20
2019-03-31T00:11:46.900Z,99.10
2019-03-31T00:14:15.756Z,99.10
2019-03-31T00:16:44.610Z,99.10
2019-03-31T00:19:13.485Z,99.20
2019-03-31T00:21:42.344Z,99.20
2019-03-31T00:24:11.192Z,99.10
2019-03-31T00:26:40.044Z,99.40
2019-03-31T00:29:08.888Z,99.30
2019-03-31T00:31:37.771Z,99.50
2019-03-31T00:34:06.616Z,99.40
2019-03-31T00:36:35.468Z,99.90
2019-03-31T00:39:07.096Z,99.70
2019-03-31T00:41:35.944Z,99.70
2019-03-31T00:44:04.828Z,99.60
2019-03-31T00:46:33.671Z,99.50
2019-03-31T00:49:02.524Z,99.40
2019-03-31T00:51:31.416Z,99.70
2019-03-31T00:54:00.260Z,99.90
2019-03-31T00:56:29.137Z,99.80
2019-03-31T00:58:57.980Z,99.80
2019-03-31T01:01:36.609Z,99.90
2019-03-31T01:04:02.763Z,99.80
2019-03-31T01:06:31.716Z,99.90
2019-03-31T01:09:00.997Z,99.90
2019-03-31T01:11:29.847Z,99.90
2019-03-31T01:13:58.705Z,99.90
2019-03-31T01:16:29.221Z,99.90
2019-03-31T01:18:58.068Z,99.90
2019-03-31T01:21:26.959Z,99.90
2019-03-31T01:23:55.973Z,99.90
2019-03-31T01:26:24.870Z,99.90
2019-03-31T01:28:53.719Z,99.90
2019-03-31T01:31:22.582Z,99.90
2019-03-31T01:33:51.560Z,99.90
2019-03-31T01:36:20.620Z,99.90
2019-03-31T01:38:49.467Z,99.90
2019-03-31T01:41:18.416Z,99.90
2019-03-31T01:43:47.272Z,99.90
2019-03-31T01:46:18.553Z,99.90
2019-03-31T01:48:47.408Z,99.90
2019-03-31T01:51:16.256Z,99.90
2019-03-31T01:53:45.120Z,99.90
2019-03-31T01:56:14.271Z,99.90
2019-03-31T01:58:43.150Z,99.60
2019-03-31T02:01:13.978Z,99.70
2019-03-31T02:03:42.843Z,99.50
2019-03-31T02:06:11.675Z,99.40
2019-03-31T02:08:40.532Z,99.50
2019-03-31T02:11:09.409Z,99.50
2019-03-31T02:13:38.252Z,99.40
2019-03-31T02:16:07.113Z,99.50
2019-03-31T02:18:35.960Z,99.80
2019-03-31T02:21:04.816Z,99.40
2019-03-31T02:23:33.697Z,99.30
2019-03-31T02:26:02.547Z,99.20
2019-03-31T02:28:31.408Z,99.10
2019-03-31T02:31:00.265Z,99.00
2019-03-31T02:33:29.114Z,98.90
2019-03-31T02:35:57.987Z,98.90
2019-03-31T02:38:26.841Z,98.90
2019-03-31T02:40:55.680Z,98.80
2019-03-31T02:43:24.551Z,98.80
2019-03-31T02:45:53.389Z,98.70
2019-03-31T02:48:22.276Z,98.80
2019-03-31T02:50:51.725Z,98.80
2019-03-31T02:53:21.200Z,98.80
2019-03-31T02:55:50.127Z,98.70
2019-03-31T02:58:19.574Z,98.70
2019-03-31T03:00:49.038Z,98.80
2019-03-31T03:03:18.679Z,98.80
2019-03-31T03:05:48.136Z,98.90
2019-03-31T03:08:18.582Z,99.00
2019-03-31T03:10:51.891Z,98.90
2019-03-31T03:13:22.762Z,98.90
2019-03-31T03:16:00.564Z,98.90
2019-03-31T03:18:29.409Z,98.80
2019-03-31T03:20:58.265Z,98.80
2019-03-31T03:23:27.129Z,98.80
2019-03-31T03:25:56.891Z,98.70
2019-03-31T03:28:25.921Z,98.80
2019-03-31T03:30:55.191Z,98.80
2019-03-31T03:33:24.233Z,98.80
2019-03-31T03:35:53.078Z,98.90
2019-03-31T03:38:21.933Z,99.10
2019-03-31T03:40:50.788Z,99.20
2019-03-31T03:43:19.631Z,99.20
2019-03-31T03:45:48.521Z,99.30
2019-03-31T03:48:17.355Z,99.40
2019-03-31T03:50:46.195Z,99.40
2019-03-31T03:53:15.052Z,99.30
2019-03-31T03:55:43.893Z,99.30
2019-03-31T03:58:12.751Z,99.40
2019-03-31T04:00:41.590Z,99.30
2019-03-31T04:03:28.650Z,99.30
2019-03-31T04:05:40.933Z,99.10
2019-03-31T04:08:09.777Z,99.10
2019-03-31T04:10:47.563Z,99.10
2019-03-31T04:13:16.422Z,99.10
2019-03-31T04:15:45.256Z,99.20
2019-03-31T04:18:14.104Z,99.20
2019-03-31T04:20:42.958Z,99.20
2019-03-31T04:23:11.804Z,99.20
2019-03-31T04:25:40.669Z,99.20
2019-03-31T04:28:09.546Z,99.10
2019-03-31T04:30:38.377Z,99.10
2019-03-31T04:33:07.233Z,99.10
2019-03-31T04:35:36.105Z,99.00
2019-03-31T04:38:04.950Z,99.00
2019-03-31T04:40:33.808Z,98.90
2019-03-31T04:43:02.710Z,98.90
2019-03-31T04:45:31.557Z,98.90
2019-03-31T04:48:00.411Z,98.90
2019-03-31T04:50:29.256Z,98.90
2019-03-31T04:52:58.113Z,98.90
2019-03-31T04:55:26.984Z,98.80
2019-03-31T04:57:55.828Z,98.70
2019-03-31T05:00:24.684Z,98.80
2019-03-31T05:02:53.540Z,98.80
2019-03-31T05:05:22.392Z,98.70
2019-03-31T05:07:52.149Z,98.70
2019-03-31T05:10:21.000Z,98.70
2019-03-31T05:12:49.848Z,98.70
2019-03-31T05:15:18.698Z,98.60
2019-03-31T05:17:47.542Z,98.50
2019-03-31T05:20:16.416Z,98.30
2019-03-31T05:22:45.266Z,98.30
2019-03-31T05:25:14.112Z,98.10
2019-03-31T05:27:42.964Z,98.10
2019-03-31T05:30:12.014Z,98.20
2019-03-31T05:32:40.895Z,98.30
2019-03-31T05:35:09.836Z,98.00
2019-03-31T05:37:50.212Z,97.70
2019-03-31T05:40:09.378Z,97.80
2019-03-31T05:42:38.232Z,97.80
2019-03-31T05:45:07.510Z,98.00
2019-03-31T05:47:36.374Z,97.80
2019-03-31T05:50:06.722Z,97.70
2019-03-31T05:52:35.585Z,97.70
2019-03-31T05:55:06.233Z,97.40
2019-03-31T05:57:35.104Z,97.60
2019-03-31T06:00:06.157Z,97.50
2019-03-31T06:02:35.007Z,97.70
2019-03-31T06:05:04.785Z,97.40
2019-03-31T06:07:33.638Z,97.20
2019-03-31T06:10:04.164Z,97.00
2019-03-31T06:12:33.049Z,97.30
2019-03-31T06:15:01.906Z,96.90
2019-03-31T06:17:30.756Z,96.90
2019-03-31T06:19:59.620Z,96.90
2019-03-31T06:22:28.776Z,96.90
2019-03-31T06:24:57.634Z,96.70
2019-03-31T06:27:26.472Z,96.80
2019-03-31T06:29:55.352Z,97.00
2019-03-31T06:32:24.230Z,97.20
2019-03-31T06:34:53.073Z,97.10
2019-03-31T06:37:21.924Z,96.80
2019-03-31T06:39:50.784Z,96.60
2019-03-31T06:42:19.643Z,96.50
2019-03-31T06:44:48.532Z,96.20
2019-03-31T06:47:17.380Z,96.00
2019-03-31T06:49:46.229Z,95.90
2019-03-31T06:52:15.097Z,95.70
2019-03-31T06:54:43.955Z,95.10
2019-03-31T06:57:12.831Z,95.20
2019-03-31T06:59:41.686Z,95.10
2019-03-31T07:02:10.530Z,94.60
2019-03-31T07:04:39.398Z,94.20
2019-03-31T07:07:08.247Z,94.00
2019-03-31T07:09:37.127Z,94.00
2019-03-31T07:12:06.940Z,94.00
2019-03-31T07:14:35.800Z,93.90
2019-03-31T07:17:04.648Z,93.30
2019-03-31T07:19:33.524Z,92.80
2019-03-31T07:22:02.395Z,92.40
2019-03-31T07:24:31.240Z,92.00
2019-03-31T07:27:00.097Z,91.40
2019-03-31T07:29:28.944Z,90.80
2019-03-31T07:31:57.801Z,90.00
2019-03-31T07:34:26.686Z,86.20
2019-03-31T07:36:55.533Z,84.90
2019-03-31T07:39:25.794Z,86.00
2019-03-31T07:41:54.707Z,86.70
2019-03-31T07:44:23.592Z,88.70
2019-03-31T07:46:52.473Z,88.20
2019-03-31T07:49:21.320Z,87.80
2019-03-31T07:51:50.164Z,88.00
2019-03-31T07:54:19.021Z,86.40
2019-03-31T07:56:47.872Z,85.40
2019-03-31T07:59:16.764Z,83.30
2019-03-31T08:01:45.625Z,80.30
2019-03-31T08:04:15.953Z,75.10
2019-03-31T08:06:44.826Z,70.10
2019-03-31T08:09:13.663Z,65.70
2019-03-31T08:11:42.553Z,62.40
2019-03-31T08:14:12.310Z,60.20
2019-03-31T08:16:41.148Z,62.40
2019-03-31T08:19:09.996Z,67.60
2019-03-31T08:21:38.860Z,68.20
2019-03-31T08:24:07.749Z,67.80
2019-03-31T08:26:36.604Z,70.00
2019-03-31T08:29:05.563Z,72.80
2019-03-31T08:31:34.436Z,75.80
2019-03-31T08:34:03.568Z,72.70
2019-03-31T08:36:35.208Z,71.10
2019-03-31T08:39:03.169Z,71.50
2019-03-31T08:41:32.060Z,71.40
2019-03-31T08:44:01.512Z,72.30
2019-03-31T08:46:32.064Z,73.70
2019-03-31T08:49:00.963Z,76.20
2019-03-31T08:51:29.799Z,78.10
2019-03-31T08:53:58.649Z,80.30
2019-03-31T08:56:27.513Z,81.10
2019-03-31T08:58:56.391Z,81.60
2019-03-31T09:01:25.258Z,81.90
2019-03-31T09:03:54.110Z,82.20
2019-03-31T09:06:22.955Z,80.50
2019-03-31T09:08:51.821Z,76.80
2019-03-31T09:11:20.682Z,71.50
2019-03-31T09:13:49.558Z,66.80
2019-03-31T09:16:19.365Z,61.70
2019-03-31T09:18:48.206Z,61.40
2019-03-31T09:21:17.135Z,60.40
2019-03-31T09:23:45.988Z,57.50
2019-03-31T09:26:14.866Z,59.20
2019-03-31T09:28:43.720Z,59.30
2019-03-31T09:31:12.569Z,56.80
2019-03-31T09:33:41.432Z,55.90
2019-03-31T09:36:16.422Z,55.40
2019-03-31T09:38:40.860Z,56.10
2019-03-31T09:41:09.714Z,58.00
2019-03-31T09:43:38.600Z,60.10
2019-03-31T09:46:07.455Z,59.50
2019-03-31T09:48:36.316Z,59.30
2019-03-31T09:51:05.203Z,66.60
2019-03-31T09:53:34.051Z,72.50
2019-03-31T09:56:02.899Z,76.00
2019-03-31T09:58:31.749Z,79.00
2019-03-31T10:01:00.593Z,79.90
2019-03-31T10:03:29.471Z,79.80
2019-03-31T10:06:09.914Z,79.00
2019-03-31T10:08:29.121Z,77.90
2019-03-31T10:10:57.985Z,76.50
2019-03-31T10:13:26.825Z,74.40
2019-03-31T10:15:55.697Z,73.00
2019-03-31T10:18:25.512Z,69.90
2019-03-31T10:20:54.437Z,69.80
2019-03-31T10:23:23.288Z,65.80
2019-03-31T10:25:52.153Z,65.70
2019-03-31T10:28:21.032Z,66.00
2019-03-31T10:30:49.884Z,65.70
2019-03-31T10:33:18.728Z,66.00
2019-03-31T10:35:47.572Z,68.00
2019-03-31T10:38:16.424Z,68.30
2019-03-31T10:40:45.292Z,70.40
2019-03-31T10:43:14.133Z,72.40
2019-03-31T10:45:42.976Z,73.00
2019-03-31T10:48:20.468Z,74.20
2019-03-31T10:50:42.327Z,74.20
2019-03-31T10:53:11.200Z,75.20
2019-03-31T10:55:40.052Z,75.50
2019-03-31T10:58:08.933Z,74.70
2019-03-31T11:00:38.585Z,76.10
2019-03-31T11:03:08.332Z,75.40
2019-03-31T11:05:37.332Z,76.60
2019-03-31T11:08:06.372Z,75.50
2019-03-31T11:10:35.319Z,75.20
2019-03-31T11:13:04.216Z,75.40
2019-03-31T11:15:33.172Z,74.50
2019-03-31T11:18:02.064Z,72.90
2019-03-31T11:20:31.794Z,72.40
2019-03-31T11:23:05.187Z,72.60
2019-03-31T11:25:34.041Z,70.50
2019-03-31T11:28:02.938Z,69.40
2019-03-31T11:30:31.912Z,69.80
2019-03-31T11:33:00.767Z,70.10
2019-03-31T11:35:29.717Z,70.20
2019-03-31T11:37:58.557Z,70.20
2019-03-31T11:40:27.408Z,71.10
2019-03-31T11:42:56.434Z,70.20
2019-03-31T11:45:25.400Z,69.20
2019-03-31T11:47:54.260Z,67.40
2019-03-31T11:50:23.108Z,69.70
2019-03-31T11:52:51.969Z,70.90
2019-03-31T11:55:20.850Z,69.90
2019-03-31T11:57:49.707Z,70.60
2019-03-31T12:00:20.216Z,71.40
2019-03-31T12:02:49.070Z,72.80
2019-03-31T12:05:18.017Z,74.20
2019-03-31T12:07:47.554Z,76.40
2019-03-31T12:10:19.600Z,76.80
2019-03-31T12:12:46.960Z,79.80
2019-03-31T12:15:15.818Z,78.30
2019-03-31T12:17:44.668Z,78.50
2019-03-31T12:20:14.046Z,78.90
2019-03-31T12:22:43.776Z,77.50
2019-03-31T12:25:12.826Z,76.80
2019-03-31T12:27:41.675Z,76.70
2019-03-31T12:30:10.504Z,78.40
2019-03-31T12:32:39.378Z,79.10
2019-03-31T12:35:09.518Z,80.80
2019-03-31T12:37:42.735Z,81.10
2019-03-31T12:40:15.112Z,81.70
2019-03-31T12:42:42.260Z,80.70
2019-03-31T12:45:11.219Z,80.30
2019-03-31T12:47:40.070Z,80.40
2019-03-31T12:50:09.733Z,75.90
2019-03-31T12:52:46.781Z,73.80
2019-03-31T12:55:09.069Z,71.70
2019-03-31T12:57:37.911Z,70.70
2019-03-31T13:00:07.955Z,69.60
2019-03-31T13:02:36.832Z,67.70
2019-03-31T13:05:07.177Z,68.00
2019-03-31T13:07:36.020Z,67.80
2019-03-31T13:10:05.562Z,68.00
2019-03-31T13:12:35.182Z,68.80
2019-03-31T13:15:06.343Z,68.70
2019-03-31T13:17:35.184Z,72.50
2019-03-31T13:20:05.918Z,75.60
2019-03-31T13:22:34.752Z,77.40
2019-03-31T13:25:06.377Z,78.40
2019-03-31T13:27:35.316Z,79.10
2019-03-31T13:30:05.288Z,79.90
2019-03-31T13:32:34.122Z,74.70
2019-03-31T13:35:02.995Z,74.30
2019-03-31T13:37:31.832Z,74.90
2019-03-31T13:40:00.726Z,72.80
2019-03-31T13:42:29.573Z,72.80
2019-03-31T13:44:58.403Z,72.60
2019-03-31T13:47:27.293Z,71.70
2019-03-31T13:49:56.154Z,72.30
2019-03-31T13:52:25.023Z,72.60
2019-03-31T13:54:53.864Z,72.30
2019-03-31T13:57:22.955Z,72.10
2019-03-31T13:59:52.261Z,74.20
2019-03-31T14:02:21.313Z,73.40
2019-03-31T14:04:51.859Z,75.80
2019-03-31T14:07:20.733Z,78.40
2019-03-31T14:09:49.588Z,80.40
2019-03-31T14:12:18.594Z,84.30
2019-03-31T14:14:47.495Z,86.20
2019-03-31T14:17:17.732Z,88.20
2019-03-31T14:19:48.203Z,90.00
2019-03-31T14:22:17.094Z,90.30
2019-03-31T14:24:45.969Z,90.80
2019-03-31T14:27:15.684Z,91.30
2019-03-31T14:29:44.622Z,91.80
2019-03-31T14:32:13.456Z,92.30
2019-03-31T14:34:42.297Z,92.40
2019-03-31T14:37:11.137Z,92.20
2019-03-31T14:39:39.974Z,92.10
2019-03-31T14:42:08.848Z,92.40
2019-03-31T14:44:37.802Z,92.10
2019-03-31T14:47:06.652Z,92.00
2019-03-31T14:49:35.503Z,92.30
2019-03-31T14:52:04.358Z,92.50
2019-03-31T14:54:33.248Z,93.20
2019-03-31T14:57:02.085Z,93.80
2019-03-31T14:59:30.923Z,94.20
2019-03-31T15:01:59.787Z,94.50
2019-03-31T15:04:28.619Z,94.60
2019-03-31T15:06:57.506Z,94.80
2019-03-31T15:09:26.348Z,94.00
2019-03-31T15:11:56.488Z,93.50
2019-03-31T15:14:25.340Z,93.10
2019-03-31T15:16:54.176Z,92.50
2019-03-31T15:19:23.069Z,92.30
2019-03-31T15:21:51.879Z,92.00
2019-03-31T15:24:20.724Z,92.30
2019-03-31T15:26:49.922Z,92.50
2019-03-31T15:29:19.631Z,92.30
2019-03-31T15:31:48.496Z,91.90
2019-03-31T15:34:17.340Z,91.80
2019-03-31T15:36:46.191Z,91.80
2019-03-31T15:39:15.032Z,91.80
2019-03-31T15:41:43.909Z,92.10
2019-03-31T15:44:12.829Z,92.00
2019-03-31T15:46:41.692Z,92.00
2019-03-31T15:49:10.541Z,92.20
2019-03-31T15:51:39.369Z,92.30
2019-03-31T15:54:08.208Z,92.80
2019-03-31T15:56:37.118Z,93.20
2019-03-31T15:59:05.960Z,93.30
2019-03-31T16:01:34.790Z,93.50
2019-03-31T16:04:03.661Z,93.90
2019-03-31T16:06:32.501Z,93.90
2019-03-31T16:09:01.379Z,93.90
2019-03-31T16:11:30.214Z,93.80
2019-03-31T16:13:59.051Z,93.80
2019-03-31T16:16:30.526Z,93.70
2019-03-31T16:18:59.872Z,93.50
2019-03-31T16:21:28.744Z,93.50
2019-03-31T16:23:57.584Z,93.40
2019-03-31T16:26:26.428Z,93.50
2019-03-31T16:28:55.295Z,93.60
2019-03-31T16:31:25.051Z,93.50
2019-03-31T16:33:53.941Z,93.50
2019-03-31T16:36:22.807Z,93.20
2019-03-31T16:38:51.680Z,93.20
2019-03-31T16:41:21.019Z,93.30
2019-03-31T16:43:49.852Z,93.70
2019-03-31T16:46:19.572Z,93.10
2019-03-31T16:48:48.416Z,92.70
2019-03-31T16:51:17.260Z,92.90
2019-03-31T16:53:46.100Z,92.80
2019-03-31T16:56:14.951Z,93.00
2019-03-31T16:58:43.943Z,93.20
2019-03-31T17:01:12.804Z,93.50
2019-03-31T17:03:41.657Z,93.50
2019-03-31T17:06:10.494Z,93.70
2019-03-31T17:08:39.344Z,93.70
2019-03-31T17:11:08.268Z,93.40
2019-03-31T17:13:37.108Z,93.40
2019-03-31T17:16:05.961Z,93.10
2019-03-31T17:18:36.039Z,92.90
2019-03-31T17:21:04.880Z,92.80
2019-03-31T17:23:33.748Z,92.70
2019-03-31T17:26:02.600Z,92.70
2019-03-31T17:28:31.456Z,92.80
2019-03-31T17:31:00.289Z,92.90
2019-03-31T17:33:30.394Z,93.30
2019-03-31T17:35:59.280Z,93.20
2019-03-31T17:38:28.140Z,93.30
2019-03-31T17:40:56.961Z,93.10
2019-03-31T17:43:25.852Z,93.10
2019-03-31T17:45:54.652Z,93.10
2019-03-31T17:48:23.656Z,93.00
2019-03-31T17:50:52.476Z,93.10
2019-03-31T17:53:21.324Z,93.20
2019-03-31T17:55:50.173Z,93.20
2019-03-31T17:58:19.151Z,93.20
2019-03-31T18:00:48.004Z,93.20
2019-03-31T18:03:16.882Z,93.00
2019-03-31T18:05:45.737Z,93.00
2019-03-31T18:08:14.556Z,92.90
2019-03-31T18:10:43.418Z,93.20
2019-03-31T18:13:12.287Z,93.30
2019-03-31T18:15:41.126Z,93.30
2019-03-31T18:18:11.541Z,93.50
2019-03-31T18:20:40.572Z,93.30
2019-03-31T18:23:09.420Z,93.20
2019-03-31T18:25:38.551Z,93.40
2019-03-31T18:28:07.388Z,93.30
2019-03-31T18:30:36.259Z,93.30
2019-03-31T18:33:05.103Z,93.40
2019-03-31T18:35:34.819Z,93.40
2019-03-31T18:38:03.700Z,93.60
2019-03-31T18:40:35.270Z,93.70
2019-03-31T18:43:03.036Z,93.80
2019-03-31T18:45:31.872Z,93.70
2019-03-31T18:48:01.290Z,93.70
2019-03-31T18:50:30.416Z,93.60
2019-03-31T18:52:59.457Z,93.80
2019-03-31T18:55:38.569Z,93.90
2019-03-31T18:58:08.974Z,93.90
2019-03-31T19:00:56.940Z,94.00
2019-03-31T19:03:27.389Z,94.10
2019-03-31T19:05:57.834Z,94.10
2019-03-31T19:08:37.247Z,94.10
2019-03-31T19:11:07.680Z,94.20
2019-03-31T19:13:55.585Z,94.20
2019-03-31T19:16:38.737Z,94.10
2019-03-31T19:19:21.247Z,94.10
2019-03-31T19:22:08.104Z,94.20
2019-03-31T19:24:38.523Z,94.20
2019-03-31T19:27:25.081Z,94.20
2019-03-31T19:30:04.633Z,93.80
2019-03-31T19:32:40.540Z,93.70
2019-03-31T19:35:16.760Z,93.80
2019-03-31T19:40:48.016Z,93.30
2019-03-31T19:43:21.168Z,93.30
2019-03-31T19:45:54.340Z,93.40
2019-03-31T19:48:33.625Z,93.40
2019-03-31T19:51:04.043Z,93.20
2019-03-31T19:53:46.201Z,93.30
2019-03-31T19:56:19.373Z,92.90
2019-03-31T19:58:49.803Z,92.60
2019-03-31T20:01:36.659Z,92.50
2019-03-31T20:04:07.077Z,92.60
2019-03-31T20:06:37.528Z,92.60
2019-03-31T20:09:09.857Z,92.20
2019-03-31T20:11:43.272Z,92.00
2019-03-31T20:14:16.413Z,92.00
2019-03-31T20:16:49.598Z,92.00
2019-03-31T20:19:23.118Z,92.00
2019-03-31T20:21:59.727Z,92.10
2019-03-31T20:24:30.135Z,92.10
2019-03-31T20:27:06.524Z,92.00
2019-03-31T20:29:39.712Z,92.10
2019-03-31T20:32:25.416Z,92.20
2019-03-31T20:34:58.831Z,92.70
2019-03-31T20:37:31.951Z,92.60
2019-03-31T20:40:20.856Z,92.60
2019-03-31T20:43:07.460Z,92.70
2019-03-31T20:45:36.337Z,92.40
2019-03-31T20:48:05.310Z,92.60
2019-03-31T20:50:34.157Z,92.50
2019-03-31T20:53:03.000Z,92.50
2019-03-31T20:55:31.920Z,92.60
2019-03-31T20:58:00.772Z,92.70
2019-03-31T21:00:29.644Z,92.60
2019-03-31T21:02:58.494Z,92.50
2019-03-31T21:05:27.338Z,92.50
2019-03-31T21:07:56.185Z,92.50
2019-03-31T21:10:25.033Z,92.50
2019-03-31T21:12:53.908Z,92.60
2019-03-31T21:15:22.744Z,92.60
2019-03-31T21:17:51.593Z,92.60
2019-03-31T21:20:20.455Z,92.80
2019-03-31T21:22:49.291Z,92.70
2019-03-31T21:25:18.163Z,92.80
2019-03-31T21:27:47.016Z,92.60
2019-03-31T21:30:15.964Z,92.60
2019-03-31T21:32:44.809Z,92.60
2019-03-31T21:35:13.645Z,92.60
2019-03-31T21:37:43.393Z,92.40
2019-03-31T21:40:12.238Z,92.40
2019-03-31T21:42:41.072Z,92.50
2019-03-31T21:45:09.914Z,92.70
2019-03-31T21:47:38.752Z,92.40
2019-03-31T21:50:07.857Z,92.70
2019-03-31T21:52:36.695Z,92.80
2019-03-31T21:55:06.657Z,93.00
2019-03-31T21:57:35.482Z,93.00
2019-03-31T22:00:06.890Z,92.90
2019-03-31T22:02:35.764Z,92.80
2019-03-31T22:05:08.711Z,92.60
2019-03-31T22:07:37.552Z,92.70
2019-03-31T22:10:07.200Z,92.70
2019-03-31T22:12:36.039Z,92.70
2019-03-31T22:15:05.715Z,92.60
2019-03-31T22:17:34.544Z,92.40
2019-03-31T22:20:03.987Z,92.30
2019-03-31T22:22:32.834Z,92.30
2019-03-31T22:25:01.680Z,92.20
2019-03-31T22:27:30.544Z,92.30
2019-03-31T22:29:59.380Z,92.60
2019-03-31T22:32:28.224Z,92.00
2019-03-31T22:34:57.072Z,92.10
2019-03-31T22:37:26.312Z,92.20
2019-03-31T22:39:55.183Z,92.10
2019-03-31T22:42:24.024Z,91.90
2019-03-31T22:44:52.860Z,91.40
2019-03-31T22:47:21.809Z,91.00
2019-03-31T22:49:50.652Z,90.80
2019-03-31T22:52:19.531Z,90.40
2019-03-31T22:54:48.366Z,90.40
2019-03-31T22:57:17.204Z,90.40
2019-03-31T22:59:46.054Z,90.60
2019-03-31T23:02:14.884Z,90.30
2019-03-31T23:04:43.760Z,89.00
2019-03-31T23:07:12.594Z,88.40
2019-03-31T23:09:41.440Z,88.10
2019-03-31T23:12:10.285Z,88.10
2019-03-31T23:14:39.120Z,88.40
2019-03-31T23:17:07.989Z,88.50
2019-03-31T23:19:36.824Z,88.50
2019-03-31T23:22:06.564Z,87.70
2019-03-31T23:24:35.404Z,87.20
2019-03-31T23:27:04.244Z,86.80
2019-03-31T23:29:33.110Z,86.10
2019-03-31T23:32:01.944Z,86.10
2019-03-31T23:34:30.780Z,86.70
2019-03-31T23:36:59.625Z,86.60
2019-03-31T23:39:28.461Z,87.00
2019-03-31T23:41:57.328Z,86.70
2019-03-31T23:44:26.166Z,86.70
2019-03-31T23:46:55.009Z,87.20
2019-03-31T23:49:23.862Z,87.80
2019-03-31T23:51:52.700Z,88.50
2019-03-31T23:54:21.567Z,89.20
2019-03-31T23:56:50.420Z,89.80
2019-03-31T23:59:19.263Z,89.60
